createdAt,value
2022-09-24T00:02:31.625Z,3.9
2022-09-24T00:07:53.361Z,3.8
2022-09-24T00:13:30.866Z,3.9
2022-09-24T00:19:07.576Z,3.6
2022-09-24T00:24:44.238Z,3.6
2022-09-24T00:30:21.588Z,3.8
2022-09-24T00:35:59.542Z,3.8
2022-09-24T00:41:37.822Z,3.4
2022-09-24T00:46:43.292Z,3.5
2022-09-24T00:52:05.133Z,3.8
2022-09-24T00:57:11.800Z,3.6
2022-09-24T01:02:34.367Z,3.5
2022-09-24T01:07:56.496Z,3.7
2022-09-24T01:13:02.299Z,3.9
2022-09-24T01:18:24.896Z,3.8
2022-09-24T01:23:48.898Z,3.8
2022-09-24T01:29:10.526Z,3.8
2022-09-24T01:34:34.403Z,3.6
2022-09-24T01:39:56.644Z,3.8
2022-09-24T01:50:26.753Z,3.4
2022-09-24T01:55:49.083Z,3.5
2022-09-24T02:01:11.335Z,3.4
2022-09-24T02:06:18.134Z,2.8
2022-09-24T02:11:24.736Z,2.7
2022-09-24T02:17:01.777Z,2.6
2022-09-24T02:22:23.680Z,2.6
2022-09-24T02:27:46.326Z,2.8
2022-09-24T02:33:24.403Z,2.8
2022-09-24T02:38:45.922Z,2.9
2022-09-24T02:44:23.907Z,2.9
2022-09-24T02:49:45.722Z,3
2022-09-24T02:55:23.127Z,2.8
2022-09-24T03:00:45.078Z,2.7
2022-09-24T03:06:23.606Z,2.5
2022-09-24T03:11:50.750Z,2.4
2022-09-24T03:17:12.427Z,2.5
2022-09-24T03:22:48.930Z,2.5
2022-09-24T03:27:55.123Z,2.4
2022-09-24T03:33:17.445Z,2.5
2022-09-24T03:38:39.433Z,2.4
2022-09-24T03:44:00.393Z,2.3
2022-09-24T03:49:22.003Z,2.3
2022-09-24T03:54:43.973Z,2.1
2022-09-24T04:00:05.067Z,2.3
2022-09-24T04:05:16.229Z,2.4
2022-09-24T04:10:56.862Z,2.5
2022-09-24T04:16:18.352Z,2.6
2022-09-24T04:21:55.722Z,2.5
2022-09-24T04:27:32.609Z,2.4
2022-09-24T04:32:54.308Z,2.3
2022-09-24T04:38:32.707Z,2.6
2022-09-24T04:44:10.695Z,2.9
2022-09-24T04:49:48.460Z,3.3
2022-09-24T04:55:16.875Z,3.4
2022-09-24T05:00:54.800Z,3.7
2022-09-24T05:06:38.745Z,4.1
2022-09-24T05:12:21.487Z,4.3
2022-09-24T05:17:44.996Z,4.4
2022-09-24T05:23:07.020Z,4.4
2022-09-24T05:28:29.116Z,5.1
2022-09-24T05:34:07.458Z,5.6
2022-09-24T05:39:34.293Z,5.7
2022-09-24T05:44:58.050Z,5.9
2022-09-24T05:50:35.928Z,5.6
2022-09-24T05:55:47.883Z,6.1
2022-09-24T06:01:11.054Z,6.6
2022-09-24T06:06:22.612Z,7.2
2022-09-24T06:11:45.250Z,7.3
2022-09-24T06:16:53.032Z,7.6
2022-09-24T06:22:15.451Z,8.4
2022-09-24T06:27:37.704Z,8.5
2022-09-24T06:32:48.949Z,8.8
2022-09-24T06:38:11.824Z,8.9
2022-09-24T06:43:19.241Z,9.3
2022-09-24T06:48:41.601Z,9.1
2022-09-24T06:54:22.544Z,9.7
2022-09-24T06:59:47.020Z,10
2022-09-24T07:05:10.131Z,10.1
2022-09-24T07:10:47.955Z,10.6
2022-09-24T07:16:25.801Z,10.2
2022-09-24T07:22:06.421Z,11.2
2022-09-24T07:27:44.484Z,11.9
2022-09-24T07:33:21.937Z,11.9
2022-09-24T07:38:44.279Z,11.7
2022-09-24T07:44:22.749Z,12.8
2022-09-24T07:49:49.661Z,13.4
2022-09-24T07:55:11.896Z,13.2
2022-09-24T08:00:34.161Z,13.7
2022-09-24T08:06:12.593Z,14.1
2022-09-24T08:17:00.292Z,14.5
2022-09-24T08:22:37.689Z,15
2022-09-24T08:28:15.499Z,14.4
2022-09-24T08:33:52.640Z,15.4
2022-09-24T08:39:34.187Z,15.8
2022-09-24T08:45:12.807Z,16.6
2022-09-24T08:50:50.946Z,17.1
2022-09-24T09:01:53.464Z,17.8
2022-09-24T09:07:34.605Z,17.2
2022-09-24T09:13:54.908Z,18.5
2022-09-24T09:19:21.195Z,18.8
2022-09-24T09:25:02.908Z,18.8
2022-09-24T09:30:30.225Z,18.8
2022-09-24T09:35:40.930Z,18.6
2022-09-24T09:41:08.927Z,20.2
2022-09-24T09:46:35.190Z,20.9
2022-09-24T09:51:57.862Z,20.9
2022-09-24T09:57:19.585Z,21
2022-09-24T10:02:42.327Z,19.5
2022-09-24T10:08:26.876Z,21.1
2022-09-24T10:14:04.700Z,20.4
2022-09-24T10:19:44.694Z,20.2
2022-09-24T10:25:27.600Z,20.3
2022-09-24T10:30:33.990Z,21.3
2022-09-24T10:35:41.089Z,20
2022-09-24T10:40:53.463Z,20.2
2022-09-24T10:46:00.239Z,21.2
2022-09-24T10:51:26.654Z,20.2
2022-09-24T10:56:35.763Z,19.9
2022-09-24T11:01:43.165Z,22.1
2022-09-24T11:07:22.853Z,20.3
2022-09-24T11:13:02.653Z,20.5
2022-09-24T11:18:40.518Z,20.8
2022-09-24T11:23:47.522Z,20.6
2022-09-24T11:29:25.609Z,20.8
2022-09-24T11:34:52.455Z,21.7
2022-09-24T11:40:30.024Z,19.9
2022-09-24T11:46:08.241Z,21.2
2022-09-24T11:51:49.229Z,20.6
2022-09-24T11:57:14.382Z,20.6
2022-09-24T12:02:36.587Z,22.5
2022-09-24T12:08:14.175Z,21.4
2022-09-24T12:13:36.067Z,22.1
2022-09-24T12:18:58.561Z,22.7
2022-09-24T12:24:06.041Z,21.1
2022-09-24T12:29:28.782Z,20.1
2022-09-24T12:34:55.814Z,21.6
2022-09-24T12:40:23.545Z,22.7
2022-09-24T12:46:06.822Z,21.1
2022-09-24T12:51:29.311Z,20.9
2022-09-24T12:56:51.006Z,22.1
2022-09-24T13:02:32.108Z,22
2022-09-24T13:08:14.943Z,23.2
2022-09-24T13:13:41.296Z,22.7
2022-09-24T13:19:22.629Z,21.4
2022-09-24T13:25:05.356Z,22.8
2022-09-24T13:30:49.440Z,23.4
2022-09-24T13:36:29.007Z,23.1
2022-09-24T13:42:07.102Z,22.6
2022-09-24T13:47:45.474Z,22.6
2022-09-24T13:53:23.003Z,21.4
2022-09-24T13:59:00.608Z,22.3
2022-09-24T14:04:39.374Z,21.3
2022-09-24T14:10:01.405Z,21.4
2022-09-24T14:20:31.657Z,20.8
2022-09-24T14:25:54.001Z,20.3
2022-09-24T14:31:34.032Z,20.5
2022-09-24T14:37:14.630Z,20.7
2022-09-24T14:42:37.655Z,20.4
2022-09-24T14:48:15.783Z,20.3
2022-09-24T14:53:53.705Z,20.4
2022-09-24T14:59:19.029Z,20.6
2022-09-24T15:04:59.726Z,20.6
2022-09-24T15:10:39.426Z,20.2
2022-09-24T15:16:17.750Z,21.1
2022-09-24T15:21:55.853Z,21.4
2022-09-24T15:27:36.657Z,21.8
2022-09-24T15:33:14.468Z,21.4
2022-09-24T15:38:37.376Z,21.1
2022-09-24T15:43:59.836Z,20.9
2022-09-24T15:49:24.410Z,20.6
2022-09-24T15:55:09.319Z,20.4
2022-09-24T16:00:36.801Z,19.1
2022-09-24T16:06:00.163Z,19
2022-09-24T16:11:42.135Z,18.4
2022-09-24T16:17:07.557Z,17.3
2022-09-24T16:22:18.202Z,16.8
2022-09-24T16:27:58.739Z,16.4
2022-09-24T16:33:36.735Z,16.1
2022-09-24T16:39:14.046Z,15.9
2022-09-24T16:44:52.702Z,15.6
2022-09-24T16:50:19.721Z,15.4
2022-09-24T16:55:01.233Z,15.4
2022-09-24T17:00:23.306Z,15.1
2022-09-24T17:06:06.634Z,14.9
2022-09-24T17:11:51.239Z,14.9
2022-09-24T17:17:14.398Z,14.6
2022-09-24T17:22:55.492Z,14.4
2022-09-24T17:28:37.289Z,14.4
2022-09-24T17:34:32.476Z,14.1
2022-09-24T17:40:10.422Z,13.8
2022-09-24T17:45:32.866Z,13.4
2022-09-24T17:51:00.894Z,12.8
2022-09-24T17:56:23.899Z,12.3
2022-09-24T18:02:02.003Z,12.3
2022-09-24T18:07:25.042Z,11.9
2022-09-24T18:12:52.167Z,11.7
2022-09-24T18:18:30.701Z,11.4
2022-09-24T18:23:53.992Z,11.3
2022-09-24T18:29:00.033Z,11.4
2022-09-24T18:34:38.371Z,11.5
2022-09-24T18:40:00.943Z,11.4
2022-09-24T18:45:39.250Z,11.2
2022-09-24T18:51:02.349Z,10.9
2022-09-24T18:56:24.823Z,10.8
2022-09-24T19:01:48.610Z,10.3
2022-09-24T19:07:27.591Z,10.1
2022-09-24T19:13:05.106Z,9.9
2022-09-24T19:23:59.266Z,9.8
2022-09-24T19:29:06.487Z,9.8
2022-09-24T19:34:13.923Z,9.5
2022-09-24T19:39:37.134Z,9.4
2022-09-24T19:44:29.786Z,9.5
2022-09-24T19:49:36.006Z,9.3
2022-09-24T19:54:47.606Z,9.4
2022-09-24T20:00:14.251Z,9.2
2022-09-24T20:05:37.383Z,9.1
2022-09-24T20:10:49.999Z,9
2022-09-24T20:15:41.401Z,9.3
2022-09-24T20:21:03.363Z,9.3
2022-09-24T20:25:58.058Z,9.2
2022-09-24T20:30:51.388Z,9.2
2022-09-24T20:36:15.956Z,9.1
2022-09-24T20:41:38.393Z,8.5
2022-09-24T20:47:07.315Z,8.3
2022-09-24T20:57:38.042Z,8.1
2022-09-24T21:03:10.822Z,7.8
2022-09-24T21:09:05.933Z,8.4
2022-09-24T21:14:45.538Z,8.7
2022-09-24T21:20:57.578Z,8.4
2022-09-24T21:27:00.487Z,7.8
2022-09-24T21:32:23.625Z,7.9
2022-09-24T21:38:01.360Z,8
2022-09-24T21:43:39.326Z,7.6
2022-09-24T21:49:00.713Z,7.8
2022-09-24T21:54:07.705Z,7.4
2022-09-24T21:59:13.818Z,7.2
2022-09-24T22:04:51.954Z,7.2
2022-09-24T22:10:13.728Z,6.9
2022-09-24T22:15:50.610Z,7.4
2022-09-24T22:21:29.128Z,6.8
2022-09-24T22:26:34.897Z,6.7
2022-09-24T22:31:49.205Z,6.9
2022-09-24T22:37:13.084Z,6.8
2022-09-24T22:42:53.670Z,7
2022-09-24T22:53:57.589Z,6.8
2022-09-24T22:59:36.855Z,6.6
2022-09-24T23:05:22.027Z,6.5
2022-09-24T23:10:44.318Z,6.4
2022-09-24T23:16:22.327Z,6.6
2022-09-24T23:21:44.945Z,6.4
2022-09-24T23:27:23.791Z,6.2
2022-09-24T23:33:01.884Z,6.3
2022-09-24T23:38:38.806Z,6.2
2022-09-24T23:44:00.353Z,6.1
2022-09-24T23:49:38.153Z,6.1
2022-09-24T23:54:44.784Z,5.8
